Time;durP1;ratioP1;P1;durP2;ratioP2;P2;SDS_P1;SDS_P2;PMS_P1;PMS_P2;Temp;Humidity;BMP_temperature;BMP_pressure;BME280_temperature;BME280_humidity;BME280_pressure;Samples;Min_cycle;Max_cycle;Signal;HPM_P1;HPM_P2
2023/10/05 00:02:03;;;;;;;16.67;9.30;;;;;;;17.56;90.13;95455.81;5134423;27;20240;-47
2023/10/05 00:04:39;;;;;;;14.77;8.70;;;;;;;17.53;90.31;95456.16;5112767;28;20193;-47
2023/10/05 00:07:07;;;;;;;14.30;8.70;;;;;;;17.49;90.61;95451.47;5120173;27;20199;-46
2023/10/05 00:09:36;;;;;;;13.27;9.47;;;;;;;17.48;90.50;95455.00;5112559;28;20579;-46
2023/10/05 00:12:05;;;;;;;11.80;8.53;;;;;;;17.45;90.53;95455.34;5112456;28;20661;-45
2023/10/05 00:14:34;;;;;;;12.50;8.20;;;;;;;17.43;90.75;95452.09;5112846;28;20192;-45
2023/10/05 00:17:04;;;;;;;14.20;8.43;;;;;;;17.42;90.99;95458.25;5113626;27;20276;-46
2023/10/05 00:19:35;;;;;;;10.30;8.13;;;;;;;17.36;91.17;95446.78;5132504;27;20204;-46
2023/10/05 00:22:02;;;;;;;12.17;8.83;;;;;;;17.39;91.19;95456.78;5132802;27;20205;-45
2023/10/05 00:24:31;;;;;;;15.07;9.03;;;;;;;17.30;91.25;95443.03;5133159;27;20606;-45
2023/10/05 00:27:00;;;;;;;14.80;8.27;;;;;;;17.39;91.21;95450.81;5131141;27;20185;-45
2023/10/05 00:29:29;;;;;;;12.53;8.80;;;;;;;17.37;91.49;95448.38;5119255;27;20228;-44
2023/10/05 00:31:59;;;;;;;14.20;8.97;;;;;;;17.35;91.48;95445.13;5112377;28;20627;-45
2023/10/05 00:34:27;;;;;;;15.73;8.93;;;;;;;17.34;91.48;95445.31;5112433;28;20204;-45
2023/10/05 00:36:57;;;;;;;12.87;8.50;;;;;;;17.32;91.52;95442.09;5112668;28;20383;-45
2023/10/05 00:39:24;;;;;;;13.23;8.63;;;;;;;17.29;91.84;95444.00;5114953;27;20189;-45
2023/10/05 00:42:07;;;;;;;11.70;8.60;;;;;;;17.29;91.98;95443.22;5113456;28;20648;-47
2023/10/05 00:44:36;;;;;;;13.63;7.67;;;;;;;17.10;91.81;95422.81;5122194;28;20189;-45
2023/10/05 00:47:05;;;;;;;16.30;8.63;;;;;;;17.26;91.98;95446.09;5131884;27;20184;-48
2023/10/05 00:49:42;;;;;;;15.30;8.13;;;;;;;17.08;91.74;95422.19;5129758;27;20192;-45
2023/10/05 00:52:13;;;;;;;10.53;7.80;;;;;;;17.25;91.89;95444.50;5112072;28;20216;-45
2023/10/05 00:54:44;;;;;;;19.33;10.03;;;;;;;17.23;91.86;95444.66;5111677;28;20203;-45
2023/10/05 00:57:15;;;;;;;11.63;8.17;;;;;;;17.22;92.04;95442.22;5112049;28;20192;-46
2023/10/05 00:59:46;;;;;;;12.40;7.97;;;;;;;17.23;91.93;95438.69;5112443;27;20197;-45
2023/10/05 01:02:16;;;;;;;11.70;8.73;;;;;;;17.22;92.09;95444.81;5128642;27;20180;-45
2023/10/05 01:04:56;;;;;;;13.27;7.70;;;;;;;17.20;92.03;95441.59;5132069;27;20185;-46
2023/10/05 01:07:43;;;;;;;17.47;8.73;;;;;;;17.22;92.33;95442.22;5131751;27;20328;-46
2023/10/05 01:10:28;;;;;;;16.17;8.97;;;;;;;17.20;92.42;95436.41;5129813;27;20188;-44
2023/10/05 01:12:56;;;;;;;11.10;8.93;;;;;;;17.20;92.40;95434.63;5113578;27;20192;-46
2023/10/05 01:15:30;;;;;;;12.67;8.50;;;;;;;17.21;92.05;95433.66;5110968;28;20193;-46
2023/10/05 01:17:57;;;;;;;10.20;7.90;;;;;;;17.20;92.30;95432.06;5110959;28;20626;-45
2023/10/05 01:20:26;;;;;;;10.53;8.03;;;;;;;17.21;92.16;95431.06;5111134;27;20188;-44
2023/10/05 01:22:57;;;;;;;11.53;7.40;;;;;;;17.02;91.99;95401.19;5121338;27;20189;-46
2023/10/05 01:25:27;;;;;;;11.50;7.80;;;;;;;17.22;91.85;95424.94;5132022;27;20190;-46
2023/10/05 01:27:55;;;;;;;25.50;8.30;;;;;;;17.19;91.96;95433.03;5131352;27;20196;-47
2023/10/05 01:30:22;;;;;;;15.80;7.70;;;;;;;17.21;91.81;95427.69;5131624;27;20230;-45
2023/10/05 01:32:50;;;;;;;13.07;8.10;;;;;;;17.21;91.65;95433.66;5117766;27;20188;-46
2023/10/05 01:35:23;;;;;;;12.17;7.77;;;;;;;17.21;91.66;95431.06;5113618;27;20231;-46
2023/10/05 01:37:53;;;;;;;17.07;8.97;;;;;;;17.21;91.51;95422.50;5115133;28;20236;-46
2023/10/05 01:40:30;;;;;;;13.43;7.70;;;;;;;17.19;91.72;95427.06;5111873;28;20181;-44
2023/10/05 01:42:59;;;;;;;10.20;7.40;;;;;;;17.18;91.59;95421.06;5111838;27;20276;-45
2023/10/05 01:45:29;;;;;;;10.33;8.33;;;;;;;17.15;91.71;95418.81;5129553;27;20298;-46
2023/10/05 01:47:56;;;;;;;12.83;7.37;;;;;;;17.15;91.65;95418.81;5130203;27;20275;-45
2023/10/05 01:50:23;;;;;;;11.83;8.33;;;;;;;17.11;91.67;95414.13;5131084;27;20266;-45
2023/10/05 01:52:56;;;;;;;11.13;6.97;;;;;;;17.16;91.37;95417.03;5128773;27;20184;-43
2023/10/05 01:55:24;;;;;;;11.80;7.33;;;;;;;17.14;91.18;95424.94;5118906;27;20220;-45
2023/10/05 01:57:53;;;;;;;10.57;7.37;;;;;;;17.13;91.38;95415.56;5109981;28;20222;-45
2023/10/05 02:00:23;;;;;;;13.90;7.90;;;;;;;17.13;91.18;95422.50;5110168;28;20248;-46
2023/10/05 02:02:52;;;;;;;14.63;8.30;;;;;;;17.15;91.12;95423.97;5110604;27;20192;-46
2023/10/05 02:05:20;;;;;;;10.83;7.53;;;;;;;17.13;91.26;95423.31;5089910;28;20247;-46
2023/10/05 02:07:49;;;;;;;10.77;7.47;;;;;;;17.13;91.22;95420.72;5088124;28;20189;-44
2023/10/05 02:10:19;;;;;;;9.90;7.63;;;;;;;17.13;91.17;95427.69;5092895;27;20635;-47
2023/10/05 02:12:49;;;;;;;10.30;7.80;;;;;;;17.12;91.23;95421.69;5130468;27;20194;-46
2023/10/05 02:15:16;;;;;;;11.57;7.33;;;;;;;17.08;91.29;95423.00;5128259;27;20188;-46
2023/10/05 02:17:46;;;;;;;12.63;8.60;;;;;;;17.03;91.36;95418.31;5127451;27;20260;-44
2023/10/05 02:20:37;;;;;;;13.17;7.70;;;;;;;17.05;91.38;95420.72;5109904;28;20199;-45
2023/10/05 02:23:16;;;;;;;8.63;7.20;;;;;;;17.02;91.34;95416.69;5109561;28;20185;-46
2023/10/05 02:25:45;;;;;;;8.33;7.10;;;;;;;17.01;91.42;95424.59;5112560;27;20279;-46
2023/10/05 02:28:22;;;;;;;17.90;8.30;;;;;;;16.99;91.25;95422.16;5129947;27;20661;-46
2023/10/05 02:30:51;;;;;;;12.73;7.80;;;;;;;16.98;91.19;95430.91;5130330;27;20203;-45
2023/10/05 02:33:23;;;;;;;19.50;7.70;;;;;;;16.97;91.08;95434.44;5130135;27;20192;-47
2023/10/05 02:35:54;;;;;;;10.87;7.43;;;;;;;16.94;91.20;95432.19;5128386;27;20195;-45
2023/10/05 02:38:22;;;;;;;10.20;7.47;;;;;;;16.93;91.34;95422.00;5112001;27;20212;-46
2023/10/05 02:40:54;;;;;;;8.67;6.90;;;;;;;16.68;91.13;95393.50;5109617;28;20211;-44
2023/10/05 02:43:27;;;;;;;15.30;7.53;;;;;;;16.90;91.20;95419.72;5109521;28;20185;-46
2023/10/05 02:46:01;;;;;;;10.73;7.17;;;;;;;16.91;91.09;95434.25;5111118;27;20181;-45
2023/10/05 02:48:30;;;;;;;15.47;7.60;;;;;;;16.91;91.06;95434.25;5116140;28;20185;-46
2023/10/05 02:50:57;;;;;;;9.03;7.03;;;;;;;16.87;90.95;95426.00;5109378;28;20811;-45
2023/10/05 02:53:25;;;;;;;12.40;7.30;;;;;;;16.87;91.20;95430.38;5109597;28;20714;-46
2023/10/05 02:55:54;;;;;;;8.27;7.33;;;;;;;16.78;91.20;95421.81;5109767;28;20271;-46
2023/10/05 02:58:22;;;;;;;15.43;7.03;;;;;;;16.83;91.20;95431.66;5115131;28;20180;-46
2023/10/05 03:00:49;;;;;;;16.83;7.53;;;;;;;16.75;91.35;95429.84;5124482;27;20223;-45
2023/10/05 03:03:16;;;;;;;10.13;7.03;;;;;;;16.77;91.51;95433.09;5109696;28;20181;-45
2023/10/05 03:05:45;;;;;;;13.77;7.17;;;;;;;16.77;91.59;95441.66;5109081;28;20250;-46
2023/10/05 03:08:11;;;;;;;14.63;7.47;;;;;;;16.74;91.54;95438.56;5110443;28;20569;-46
2023/10/05 03:10:38;;;;;;;10.73;7.63;;;;;;;16.72;91.70;95438.75;5119461;28;20192;-46
2023/10/05 03:13:05;;;;;;;11.63;6.93;;;;;;;16.66;91.89;95428.19;5109505;28;20197;-46
2023/10/05 03:15:34;;;;;;;11.20;7.30;;;;;;;16.66;91.88;95430.78;5109862;28;20193;-47
2023/10/05 03:18:01;;;;;;;8.53;7.17;;;;;;;16.14;91.84;95349.09;5109454;28;20218;-47
2023/10/05 03:20:29;;;;;;;14.57;7.23;;;;;;;16.63;91.99;95431.91;5110506;28;20254;-44
2023/10/05 03:22:58;;;;;;;15.40;8.60;;;;;;;16.59;92.06;95428.03;5109708;28;20272;-46
2023/10/05 03:25:26;;;;;;;11.67;7.43;;;;;;;16.55;92.24;95422.34;5109894;28;20231;-45
2023/10/05 03:27:55;;;;;;;11.00;7.23;;;;;;;16.61;92.24;95431.25;5109509;28;20238;-45
2023/10/05 03:30:29;;;;;;;10.63;6.90;;;;;;;16.62;92.02;95429.47;5109635;28;20197;-44
2023/10/05 03:33:00;;;;;;;8.63;7.47;;;;;;;16.61;91.85;95436.41;5111336;28;20212;-45
2023/10/05 03:35:31;;;;;;;14.60;8.07;;;;;;;16.58;92.14;95439.31;5114385;27;20188;-46
2023/10/05 03:38:00;;;;;;;14.97;8.00;;;;;;;16.53;91.95;95432.00;5112231;28;20652;-46
2023/10/05 03:40:35;;;;;;;11.00;7.50;;;;;;;16.50;92.11;95428.97;5122330;27;20272;-47
2023/10/05 03:43:05;;;;;;;10.13;7.20;;;;;;;16.51;92.22;95435.75;5119747;27;20195;-45
2023/10/05 03:45:32;;;;;;;13.33;8.10;;;;;;;16.55;92.24;95440.44;5113129;28;20193;-46
2023/10/05 03:47:59;;;;;;;13.43;7.90;;;;;;;16.07;91.99;95367.97;5113272;28;20261;-47
2023/10/05 03:50:26;;;;;;;13.03;7.93;;;;;;;16.50;92.40;95436.72;5113660;28;20196;-46
2023/10/05 03:52:53;;;;;;;10.77;7.67;;;;;;;16.45;92.40;95442.34;5120037;27;20715;-47
2023/10/05 03:55:21;;;;;;;11.10;8.27;;;;;;;16.42;92.42;95439.25;5124474;27;20737;-46
2023/10/05 03:57:49;;;;;;;13.07;8.40;;;;;;;16.39;92.51;95450.69;5133609;27;20184;-47
2023/10/05 04:00:23;;;;;;;11.63;7.60;;;;;;;16.29;92.39;95442.25;5133254;27;20228;-46
2023/10/05 04:02:52;;;;;;;10.40;7.80;;;;;;;16.31;92.78;95454.03;5132015;27;20189;-46
2023/10/05 04:05:20;;;;;;;14.00;8.23;;;;;;;16.25;93.01;95454.66;5113012;27;20185;-45
2023/10/05 04:07:49;;;;;;;12.60;8.53;;;;;;;16.25;92.96;95459.81;5112539;28;20638;-46
2023/10/05 04:10:23;;;;;;;14.63;8.47;;;;;;;16.20;92.89;95451.72;5113153;27;20597;-44
2023/10/05 04:12:54;;;;;;;15.47;7.27;;;;;;;16.18;92.87;95452.84;5117618;27;20705;-47
2023/10/05 04:15:21;;;;;;;11.73;8.63;;;;;;;16.13;92.81;95453.31;5117943;27;20630;-46
2023/10/05 04:17:49;;;;;;;11.80;7.20;;;;;;;16.15;92.98;95463.47;5132937;27;20212;-46
2023/10/05 04:20:19;;;;;;;10.40;8.00;;;;;;;16.10;92.87;95457.94;5127631;27;20174;-45
2023/10/05 04:22:49;;;;;;;15.47;7.40;;;;;;;16.10;92.86;95457.94;5120950;27;20195;-45
2023/10/05 04:25:17;;;;;;;13.13;8.43;;;;;;;16.09;92.84;95469.25;5112206;28;20193;-47
2023/10/05 04:27:46;;;;;;;8.53;6.67;;;;;;;16.08;92.87;95462.47;5091922;28;20253;-46
2023/10/05 04:30:18;;;;;;;22.67;8.70;;;;;;;16.02;92.98;95456.97;5093334;27;20255;-45
2023/10/05 04:32:45;;;;;;;15.53;7.70;;;;;;;16.03;92.95;95460.34;5132226;27;20208;-45
2023/10/05 04:35:21;;;;;;;11.80;7.53;;;;;;;16.00;93.22;95463.22;5132280;27;20192;-46
2023/10/05 04:37:49;;;;;;;16.27;7.87;;;;;;;16.00;93.22;95466.59;5112637;27;20189;-44
2023/10/05 04:40:17;;;;;;;15.53;7.73;;;;;;;15.97;93.31;95464.31;5090973;28;20307;-46
2023/10/05 04:42:44;;;;;;;14.27;8.13;;;;;;;15.98;93.30;95470.31;5091496;28;20661;-46
2023/10/05 04:45:12;;;;;;;16.23;8.17;;;;;;;15.94;93.58;95477.53;5091328;28;20194;-45
2023/10/05 04:47:40;;;;;;;18.20;8.80;;;;;;;15.97;93.65;95476.41;5091478;28;20182;-45
2023/10/05 04:50:07;;;;;;;14.23;8.53;;;;;;;15.96;93.57;95472.22;5090422;28;20189;-44
2023/10/05 04:52:34;;;;;;;11.40;8.93;;;;;;;15.95;93.64;95478.34;5091082;28;20229;-46
2023/10/05 04:55:15;;;;;;;13.77;9.20;;;;;;;15.98;93.62;95489.19;5090797;28;20642;-45
2023/10/05 04:57:49;;;;;;;22.07;8.63;;;;;;;15.96;93.64;95483.34;5091117;28;20193;-44
2023/10/05 05:03:05;;;;;;;16.00;9.13;;;;;;;15.97;93.78;95489.31;5091131;28;20274;-44
2023/10/05 05:05:40;;;;;;;23.53;9.23;;;;;;;16.01;93.43;95493.22;5095854;28;20665;-43
2023/10/05 05:08:08;;;;;;;17.33;8.50;;;;;;;16.03;93.42;95494.69;5111401;28;20180;-44
2023/10/05 05:10:36;;;;;;;25.33;12.40;;;;;;;16.07;93.29;95497.78;5111198;28;20196;-45
2023/10/05 05:13:03;;;;;;;18.40;9.83;;;;;;;16.08;93.22;95496.00;5111343;28;20221;-43
2023/10/05 05:15:35;;;;;;;17.50;9.43;;;;;;;16.12;92.94;95499.91;5111190;28;20626;-44
2023/10/05 05:18:03;;;;;;;31.30;9.80;;;;;;;16.11;92.50;95483.63;5111352;27;20596;-45
2023/10/05 05:20:31;;;;;;;28.57;9.57;;;;;;;16.26;91.97;95497.56;5111201;28;20664;-44
2023/10/05 05:22:58;;;;;;;19.37;8.87;;;;;;;16.47;91.08;95501.56;5111577;28;20181;-46
2023/10/05 05:25:25;;;;;;;17.40;8.57;;;;;;;16.63;90.08;95503.41;5111073;28;20650;-44
2023/10/05 05:27:55;;;;;;;11.07;7.70;;;;;;;16.78;88.50;95501.88;5110936;28;20791;-46
2023/10/05 05:30:25;;;;;;;18.63;7.53;;;;;;;16.84;87.42;95498.69;5111206;28;20509;-44
2023/10/05 05:32:54;;;;;;;15.03;7.30;;;;;;;16.82;87.02;95500.59;5110883;28;20255;-46
2023/10/05 05:35:22;;;;;;;17.47;8.03;;;;;;;16.89;86.58;95504.19;5110963;28;20279;-44
2023/10/05 05:37:49;;;;;;;17.00;7.60;;;;;;;16.94;86.51;95511.47;5111048;28;20227;-45
2023/10/05 05:40:18;;;;;;;12.77;7.50;;;;;;;16.85;86.23;95489.97;5110689;28;20637;-46
2023/10/05 05:42:45;;;;;;;11.53;7.63;;;;;;;17.05;85.92;95513.75;5110880;28;20197;-43
2023/10/05 05:45:16;;;;;;;13.27;7.40;;;;;;;17.20;85.19;95524.31;5110792;28;20225;-46
2023/10/05 05:47:43;;;;;;;12.40;7.07;;;;;;;17.40;84.58;95514.47;5110986;28;20192;-46
2023/10/05 05:50:17;;;;;;;18.40;7.50;;;;;;;17.68;82.97;95520.19;5110701;28;20249;-46
2023/10/05 05:52:46;;;;;;;15.93;8.17;;;;;;;17.79;81.18;95497.41;5110568;28;20220;-45
2023/10/05 05:55:17;;;;;;;13.33;6.70;;;;;;;18.22;79.12;95521.31;5110335;28;20185;-46
2023/10/05 05:57:44;;;;;;;14.90;6.77;;;;;;;18.45;77.55;95526.59;5110399;28;20218;-46
2023/10/05 06:00:17;;;;;;;16.50;7.60;;;;;;;18.67;76.71;95532.06;5109891;28;20236;-46
2023/10/05 06:02:44;;;;;;;20.80;7.50;;;;;;;18.88;75.96;95526.34;5110718;28;20185;-46
2023/10/05 06:05:12;;;;;;;19.20;6.77;;;;;;;19.10;74.50;95538.56;5110458;28;20645;-44
2023/10/05 06:07:40;;;;;;;12.30;7.37;;;;;;;19.27;73.05;95542.69;5111190;28;20488;-46
2023/10/05 06:10:12;;;;;;;12.47;6.20;;;;;;;19.46;73.04;95546.63;5111894;28;20181;-46
2023/10/05 06:12:40;;;;;;;10.53;5.90;;;;;;;19.76;70.18;95541.59;5110762;28;20307;-46
2023/10/05 06:15:09;;;;;;;11.50;5.17;;;;;;;19.99;69.29;95551.97;5110794;28;20184;-45
2023/10/05 06:17:36;;;;;;;14.33;6.20;;;;;;;20.22;67.36;95557.94;5110189;28;20669;-46
2023/10/05 06:20:13;;;;;;;8.20;5.30;;;;;;;20.18;66.68;95512.53;5110221;28;20197;-46
2023/10/05 06:22:41;;;;;;;6.35;4.90;;;;;;;20.69;64.04;95556.06;5110076;28;20220;-45
2023/10/05 06:25:10;;;;;;;6.78;4.30;;;;;;;20.79;63.91;95547.00;5109904;28;20177;-47
2023/10/05 06:27:37;;;;;;;11.50;4.47;;;;;;;20.95;62.38;95551.22;5109996;28;20238;-45
2023/10/05 06:30:07;;;;;;;14.50;5.15;;;;;;;21.11;61.65;95552.00;5109938;28;20231;-45
2023/10/05 06:32:34;;;;;;;15.27;4.53;;;;;;;21.21;60.50;95553.34;5109593;28;20273;-45
2023/10/05 06:35:00;;;;;;;15.98;5.35;;;;;;;21.25;60.12;95536.38;5110048;28;20246;-46
2023/10/05 06:37:27;;;;;;;14.02;4.57;;;;;;;21.43;59.52;95549.00;5109626;28;20200;-44
2023/10/05 06:39:54;;;;;;;9.40;5.10;;;;;;;21.58;58.99;95551.56;5109796;28;20188;-46
2023/10/05 06:42:22;;;;;;;11.95;4.90;;;;;;;21.71;58.71;95553.47;5109994;28;20197;-44
2023/10/05 06:44:50;;;;;;;14.27;4.70;;;;;;;21.93;57.89;95549.06;5109967;28;20280;-46
2023/10/05 06:47:35;;;;;;;14.52;4.35;;;;;;;21.95;58.03;95552.31;5109664;28;20242;-45
2023/10/05 06:50:08;;;;;;;9.35;4.88;;;;;;;22.01;58.18;95554.16;5110068;28;20191;-46
2023/10/05 06:52:39;;;;;;;6.20;4.10;;;;;;;22.18;57.35;95550.31;5109345;28;20259;-45
2023/10/05 06:55:07;;;;;;;14.32;3.67;;;;;;;22.33;56.67;95533.81;5109931;28;20750;-45
2023/10/05 06:57:36;;;;;;;7.53;4.10;;;;;;;22.63;56.38;95548.25;5109825;28;20220;-46
2023/10/05 07:00:16;;;;;;;12.70;4.40;;;;;;;22.81;54.81;95547.75;5109979;28;20256;-47
2023/10/05 07:02:44;;;;;;;7.45;4.00;;;;;;;22.81;55.26;95554.78;5109881;28;20551;-44
2023/10/05 07:05:12;;;;;;;7.63;4.35;;;;;;;22.86;54.57;95552.38;5110183;28;20185;-47
2023/10/05 07:07:40;;;;;;;9.68;4.22;;;;;;;22.92;54.39;95555.03;5109955;28;20651;-46
2023/10/05 07:10:09;;;;;;;13.30;4.60;;;;;;;22.92;55.04;95554.25;5110924;28;20197;-46
2023/10/05 07:12:41;;;;;;;6.97;4.13;;;;;;;23.03;54.97;95545.88;5116193;28;20217;-46
2023/10/05 07:15:09;;;;;;;7.63;3.85;;;;;;;23.44;54.50;95555.47;5123747;27;20193;-45
2023/10/05 07:17:37;;;;;;;5.82;3.75;;;;;;;23.70;53.25;95555.56;5119322;28;20192;-45
2023/10/05 07:20:05;;;;;;;9.38;4.10;;;;;;;23.88;52.48;95548.97;5113929;28;20181;-46
2023/10/05 07:22:31;;;;;;;10.50;4.45;;;;;;;24.06;52.36;95556.22;5113724;28;20188;-46
2023/10/05 07:24:59;;;;;;;9.52;3.75;;;;;;;24.19;51.24;95551.00;5113535;28;20188;-45
2023/10/05 07:27:26;;;;;;;6.75;4.25;;;;;;;24.18;51.70;95544.13;5113424;28;20189;-45
2023/10/05 07:29:54;;;;;;;12.45;4.00;;;;;;;24.39;50.77;95551.81;5113645;28;20672;-46
2023/10/05 07:32:20;;;;;;;9.27;4.30;;;;;;;24.28;50.22;95532.28;5113527;28;20213;-46
2023/10/05 07:34:47;;;;;;;8.60;4.18;;;;;;;24.30;50.47;95558.22;5113327;28;20271;-46
2023/10/05 07:37:14;;;;;;;12.32;4.63;;;;;;;24.38;50.78;95562.47;5113400;28;20195;-45
2023/10/05 07:39:42;;;;;;;9.63;4.05;;;;;;;24.26;50.29;95529.06;5113789;27;20223;-48
2023/10/05 07:42:09;;;;;;;7.43;4.10;;;;;;;24.47;50.06;95562.06;5113484;28;20283;-46
2023/10/05 07:44:38;;;;;;;11.82;4.72;;;;;;;24.37;49.97;95559.06;5112911;28;20325;-45
2023/10/05 07:47:06;;;;;;;9.70;4.47;;;;;;;24.32;50.47;95548.38;5113229;28;20213;-45
2023/10/05 07:49:35;;;;;;;14.25;4.43;;;;;;;24.16;50.60;95520.03;5113289;28;20192;-46
2023/10/05 07:52:03;;;;;;;11.65;4.30;;;;;;;24.40;50.37;95550.81;5113267;28;20630;-45
2023/10/05 07:54:31;;;;;;;10.57;4.65;;;;;;;24.36;49.34;95546.97;5112998;28;20253;-45
2023/10/05 07:57:00;;;;;;;6.47;3.95;;;;;;;24.02;50.11;95535.72;5113272;28;20189;-45
2023/10/05 07:59:28;;;;;;;13.10;5.10;;;;;;;23.83;50.87;95540.91;5112566;28;20272;-45
2023/10/05 08:01:55;;;;;;;8.30;4.05;;;;;;;23.62;51.54;95537.44;5112827;28;20225;-46
2023/10/05 08:04:23;;;;;;;6.93;4.32;;;;;;;23.61;51.82;95545.47;5112577;28;20306;-45
2023/10/05 08:06:51;;;;;;;16.30;4.70;;;;;;;23.68;51.91;95535.88;5112761;28;20276;-46
2023/10/05 08:09:20;;;;;;;9.23;4.28;;;;;;;23.62;51.70;95537.44;5112459;28;20694;-44
2023/10/05 08:11:47;;;;;;;15.52;5.40;;;;;;;23.80;51.82;95528.25;5112514;28;20181;-44
2023/10/05 08:14:17;;;;;;;15.15;5.05;;;;;;;23.90;51.55;95529.47;5112253;28;20221;-44
2023/10/05 08:16:43;;;;;;;8.80;4.50;;;;;;;23.93;51.73;95531.69;5112349;28;20197;-45
2023/10/05 08:19:10;;;;;;;10.82;4.68;;;;;;;23.89;51.80;95522.63;5112345;28;20185;-46
2023/10/05 08:21:40;;;;;;;9.13;5.47;;;;;;;24.01;51.92;95523.66;5112739;28;20688;-45
2023/10/05 08:24:07;;;;;;;10.73;5.13;;;;;;;24.11;51.58;95527.69;5112339;28;20189;-47
2023/10/05 08:26:34;;;;;;;12.00;5.35;;;;;;;24.22;51.61;95527.06;5114850;28;20181;-47
2023/10/05 08:29:01;;;;;;;12.57;4.75;;;;;;;24.32;51.11;95524.06;5113521;27;20206;-46
2023/10/05 08:31:28;;;;;;;10.18;4.32;;;;;;;24.34;51.43;95520.22;5112709;28;20661;-45
2023/10/05 08:33:55;;;;;;;10.18;5.00;;;;;;;24.43;51.13;95523.44;5111813;28;20220;-46
2023/10/05 08:36:22;;;;;;;12.43;4.70;;;;;;;24.50;51.35;95521.63;5111973;28;20249;-45
2023/10/05 08:38:54;;;;;;;11.75;6.03;;;;;;;24.52;50.73;95515.19;5112154;28;20201;-44
2023/10/05 08:41:31;;;;;;;14.73;5.03;;;;;;;24.68;50.97;95531.47;5111824;28;20191;-45
2023/10/05 08:43:59;;;;;;;13.65;4.90;;;;;;;24.78;50.84;95516.13;5111955;28;20192;-45
2023/10/05 08:46:27;;;;;;;19.80;5.43;;;;;;;24.88;50.65;95519.13;5111568;28;20284;-46
2023/10/05 08:48:55;;;;;;;8.30;5.88;;;;;;;24.91;50.22;95523.94;5112167;28;20237;-45
2023/10/05 08:51:24;;;;;;;10.02;5.47;;;;;;;24.86;50.40;95523.75;5111415;28;20204;-45
2023/10/05 08:53:57;;;;;;;10.18;4.90;;;;;;;24.78;50.44;95514.34;5111713;28;20285;-45
2023/10/05 08:56:25;;;;;;;7.57;5.85;;;;;;;24.72;51.08;95514.34;5111360;28;20649;-45
2023/10/05 08:58:53;;;;;;;7.82;4.90;;;;;;;24.76;50.80;95515.53;5111601;28;20196;-49
2023/10/05 09:01:25;;;;;;;12.48;5.65;;;;;;;24.73;51.20;95511.50;5111430;28;20221;-45
2023/10/05 09:04:01;;;;;;;11.50;5.55;;;;;;;24.66;51.55;95513.34;5111431;28;20682;-46
2023/10/05 09:06:30;;;;;;;9.02;6.18;;;;;;;24.45;52.40;95509.16;5111318;28;20697;-45
2023/10/05 09:09:07;;;;;;;7.35;6.15;;;;;;;24.32;53.17;95509.16;5111349;28;20200;-46
2023/10/05 09:11:35;;;;;;;15.10;5.78;;;;;;;24.02;53.51;95498.31;5111213;28;20203;-46
2023/10/05 09:16:47;;;;;;;17.33;6.15;;;;;;;23.99;53.95;95503.94;5109434;27;20240;-46
2023/10/05 09:19:17;;;;;;;11.57;5.97;;;;;;;24.04;53.71;95504.13;5111420;28;20268;-46
2023/10/05 09:22:05;;;;;;;9.00;5.72;;;;;;;24.09;53.86;95493.88;5111244;28;20199;-47
2023/10/05 09:24:33;;;;;;;13.85;5.88;;;;;;;24.17;54.07;95500.72;5110929;28;20181;-44
2023/10/05 09:27:12;;;;;;;11.23;6.25;;;;;;;24.18;54.01;95491.88;5111081;28;20767;-45
2023/10/05 09:29:40;;;;;;;8.88;5.30;;;;;;;24.17;53.54;95482.41;5111114;28;20207;-46
2023/10/05 09:32:11;;;;;;;15.80;5.88;;;;;;;24.14;53.34;95485.47;5111152;28;20250;-46
2023/10/05 09:34:44;;;;;;;9.43;5.93;;;;;;;24.07;53.34;95484.66;5109961;28;20227;-46
2023/10/05 09:37:13;;;;;;;9.95;5.32;;;;;;;24.07;53.46;95487.25;5111213;28;20649;-45
2023/10/05 09:39:49;;;;;;;12.00;5.07;;;;;;;24.03;54.09;95479.00;5110723;28;20216;-45
2023/10/05 09:42:17;;;;;;;6.57;5.15;;;;;;;24.09;53.93;95485.25;5110858;28;20630;-46
2023/10/05 09:44:52;;;;;;;10.93;5.68;;;;;;;24.12;54.07;95479.63;5110385;28;20672;-45
2023/10/05 09:47:25;;;;;;;16.25;6.55;;;;;;;24.12;53.71;95474.38;5110804;28;20359;-44
2023/10/05 09:49:54;;;;;;;10.48;6.32;;;;;;;24.14;53.51;95465.34;5110295;28;20189;-47
2023/10/05 09:52:24;;;;;;;9.68;6.63;;;;;;;24.07;53.76;95469.78;5110743;28;20193;-46
2023/10/05 09:54:52;;;;;;;11.18;5.97;;;;;;;23.93;54.42;95468.97;5110424;28;20209;-46
2023/10/05 09:57:26;;;;;;;12.88;6.47;;;;;;;23.97;54.34;95462.34;5110402;28;20189;-47
2023/10/05 09:59:59;;;;;;;11.68;5.90;;;;;;;23.94;54.46;95459.31;5110049;28;20650;-45
2023/10/05 10:02:33;;;;;;;11.38;7.18;;;;;;;23.80;54.40;95436.84;5110922;28;20262;-45
2023/10/05 10:05:05;;;;;;;10.18;6.45;;;;;;;24.04;54.22;95459.72;5110154;28;20219;-46
2023/10/05 10:07:34;;;;;;;11.13;6.30;;;;;;;24.00;54.01;95438.41;5110312;28;20192;-49
2023/10/05 10:10:05;;;;;;;10.90;5.55;;;;;;;24.04;54.01;95446.66;5109833;27;20200;-46
2023/10/05 10:12:38;;;;;;;13.45;6.80;;;;;;;24.09;54.20;95440.81;5109215;28;20196;-46
2023/10/05 10:15:24;;;;;;;13.55;6.38;;;;;;;24.09;54.42;95441.59;5110302;28;20208;-46
2023/10/05 10:18:09;;;;;;;11.30;6.03;;;;;;;23.65;54.21;95384.78;5110359;27;20614;-46
2023/10/05 10:20:36;;;;;;;16.85;7.38;;;;;;;23.98;54.56;95437.00;5110049;28;20191;-46
2023/10/05 10:23:18;;;;;;;10.70;6.28;;;;;;;23.86;54.70;95404.66;5109881;28;20220;-46
2023/10/05 10:25:49;;;;;;;15.68;6.72;;;;;;;24.15;54.10;95432.16;5110369;28;20257;-45
2023/10/05 10:28:39;;;;;;;11.40;6.43;;;;;;;24.21;53.53;95429.53;5110401;28;20282;-46
2023/10/05 10:31:17;;;;;;;12.20;6.18;;;;;;;24.15;54.21;95432.97;5110233;28;20189;-46
2023/10/05 10:33:50;;;;;;;14.05;6.00;;;;;;;24.14;54.05;95425.34;5110302;28;20327;-47
2023/10/05 10:36:21;;;;;;;11.75;6.60;;;;;;;24.24;54.42;95417.88;5110275;28;20676;-45
2023/10/05 10:38:49;;;;;;;12.68;6.25;;;;;;;24.34;53.78;95414.81;5110129;28;20379;-47
2023/10/05 10:41:21;;;;;;;14.75;6.72;;;;;;;24.46;53.66;95413.22;5110394;28;20189;-46
2023/10/05 10:43:53;;;;;;;12.68;7.30;;;;;;;24.52;53.46;95409.75;5109811;28;20573;-46
2023/10/05 10:46:28;;;;;;;11.55;6.32;;;;;;;24.47;53.41;95404.34;5109800;28;20576;-47
2023/10/05 10:48:57;;;;;;;14.65;7.15;;;;;;;24.52;53.10;95402.75;5110358;28;20642;-46
2023/10/05 10:51:27;;;;;;;11.40;7.03;;;;;;;24.53;53.39;95390.47;5109565;28;20271;-46
2023/10/05 10:53:59;;;;;;;10.70;6.70;;;;;;;24.45;53.43;95378.41;5109549;28;20228;-47
2023/10/05 10:56:29;;;;;;;11.10;6.65;;;;;;;24.57;53.09;95381.19;5109851;28;20186;-45
2023/10/05 10:59:09;;;;;;;11.52;6.57;;;;;;;24.45;52.99;95372.38;5109886;28;20658;-46
2023/10/05 11:01:43;;;;;;;8.43;5.85;;;;;;;24.45;53.24;95377.63;5109220;28;20228;-45
2023/10/05 11:04:25;;;;;;;9.82;6.80;;;;;;;24.52;53.37;95373.97;5109593;28;20199;-46
2023/10/05 11:07:05;;;;;;;11.40;6.68;;;;;;;24.64;53.22;95362.84;5109872;28;20280;-45
2023/10/05 11:09:36;;;;;;;15.45;7.35;;;;;;;24.67;52.68;95365.84;5110093;28;20188;-47
2023/10/05 11:12:12;;;;;;;11.32;6.70;;;;;;;24.65;52.53;95357.38;5109989;28;20192;-47
2023/10/05 11:14:42;;;;;;;17.08;6.90;;;;;;;24.74;52.49;95357.94;5109950;28;20208;-45
2023/10/05 11:17:24;;;;;;;12.73;7.15;;;;;;;24.86;52.51;95353.66;5109262;28;20220;-45
2023/10/05 11:19:51;;;;;;;7.82;6.07;;;;;;;24.90;52.46;95348.81;5109764;28;20275;-46
2023/10/05 11:22:23;;;;;;;12.07;6.35;;;;;;;24.82;52.05;95342.00;5109742;28;20585;-45
2023/10/05 11:25:14;;;;;;;7.97;6.53;;;;;;;24.76;52.36;95348.91;5109419;28;20189;-45
2023/10/05 11:27:54;;;;;;;10.13;6.32;;;;;;;24.79;52.06;95345.06;5109616;28;20276;-46
2023/10/05 11:30:22;;;;;;;11.60;6.47;;;;;;;24.87;52.17;95334.34;5109510;28;20719;-46
2023/10/05 11:32:54;;;;;;;11.82;6.80;;;;;;;24.96;52.51;95340.94;5109649;28;20190;-47
2023/10/05 11:35:29;;;;;;;10.88;6.53;;;;;;;25.02;51.59;95327.00;5109740;28;20224;-54
2023/10/05 11:37:59;;;;;;;17.90;8.55;;;;;;;25.10;51.79;95330.41;5112059;28;20220;-46
2023/10/05 11:40:31;;;;;;;10.55;6.00;;;;;;;25.24;51.53;95330.09;5122157;28;20650;-47
2023/10/05 11:43:04;;;;;;;13.50;6.53;;;;;;;25.24;50.92;95321.44;5117360;28;20240;-45
2023/10/05 11:45:31;;;;;;;8.85;7.10;;;;;;;25.29;50.91;95326.81;5109580;28;20189;-46
2023/10/05 11:47:59;;;;;;;17.17;6.53;;;;;;;25.29;51.31;95324.22;5109380;28;20202;-47